Time;durP1;ratioP1;P1;durP2;ratioP2;P2;SDS_P1;SDS_P2;PMS_P1;PMS_P2;Temp;Humidity;BMP_temperature;BMP_pressure;BME280_temperature;BME280_humidity;BME280_pressure;Samples;Min_cycle;Max_cycle;Signal;HPM_P1;HPM_P2
2022/01/03 00:00:44;;;;;;;23.10;3.80;;;;;;;10.07;82.16;101123.28;5078312;28;20051;-81
2022/01/03 00:03:11;;;;;;;22.70;3.90;;;;;;;10.07;81.59;101107.50;5077808;28;20029;-82
2022/01/03 00:05:38;;;;;;;25.17;4.38;;;;;;;10.05;82.02;101126.00;5097771;28;20040;-82
2022/01/03 00:08:05;;;;;;;21.33;4.00;;;;;;;10.02;82.21;101116.53;5079460;28;20028;-81
2022/01/03 00:10:33;;;;;;;29.10;4.50;;;;;;;10.01;81.86;101125.38;5076191;28;20043;-82
2022/01/03 00:12:59;;;;;;;25.88;3.92;;;;;;;9.99;82.33;101114.09;5071549;28;20111;-82
2022/01/03 00:15:24;;;;;;;31.50;4.70;;;;;;;9.96;82.22;101116.91;5069174;28;20437;-81
2022/01/03 00:17:49;;;;;;;28.00;4.70;;;;;;;9.97;81.83;101118.59;5076289;28;20051;-82
2022/01/03 00:20:16;;;;;;;28.35;5.18;;;;;;;9.94;81.95;101123.22;5077607;28;20046;-82
2022/01/03 00:23:04;;;;;;;20.05;3.95;;;;;;;9.94;82.05;101139.84;5087657;28;20024;-81
2022/01/03 00:25:35;;;;;;;22.02;4.15;;;;;;;9.95;81.76;101141.53;5086965;28;20059;-82
2022/01/03 00:28:14;;;;;;;24.48;4.35;;;;;;;9.97;81.77;101134.38;5082483;28;20024;-81
2022/01/03 00:30:43;;;;;;;21.17;4.68;;;;;;;9.95;81.42;101136.25;5067543;28;20196;-82
2022/01/03 00:33:16;;;;;;;26.25;4.68;;;;;;;9.97;81.16;101141.41;5093901;28;20033;-81
2022/01/03 00:35:42;;;;;;;22.75;4.40;;;;;;;9.97;81.39;101134.38;5071718;28;20392;-81
2022/01/03 00:38:10;;;;;;;24.67;4.60;;;;;;;9.97;81.08;101134.38;5076752;28;20026;-82
2022/01/03 00:40:36;;;;;;;27.20;4.80;;;;;;;9.97;81.16;101131.75;5080495;28;20139;-82
2022/01/03 00:43:03;;;;;;;24.85;4.70;;;;;;;9.95;81.66;101135.44;5096236;28;20052;-82
2022/01/03 00:45:29;;;;;;;27.30;5.05;;;;;;;9.97;81.68;101126.50;5085143;28;20365;-83
2022/01/03 00:47:55;;;;;;;18.73;4.05;;;;;;;9.98;81.29;101125.53;5088707;28;20030;-82
2022/01/03 00:50:22;;;;;;;23.00;4.53;;;;;;;9.97;81.06;101123.88;5084175;28;20048;-82
2022/01/03 00:52:49;;;;;;;25.52;4.43;;;;;;;9.97;80.17;101113.34;5071556;28;20028;-81
2022/01/03 00:55:14;;;;;;;24.10;4.90;;;;;;;9.99;80.47;101126.38;5081319;28;20050;-82
2022/01/03 00:58:02;;;;;;;21.63;4.57;;;;;;;9.99;81.00;101127.22;5088941;28;20479;-82
2022/01/03 01:00:31;;;;;;;19.25;4.35;;;;;;;9.95;80.59;101131.00;5081200;28;20715;-82
2022/01/03 01:03:15;;;;;;;22.60;4.55;;;;;;;9.99;80.36;101127.22;5076980;28;20020;-82
2022/01/03 01:05:43;;;;;;;24.55;5.03;;;;;;;9.97;80.68;101129.13;5076837;28;20539;-82
2022/01/03 01:08:09;;;;;;;22.63;5.15;;;;;;;9.99;80.13;101127.22;5073176;28;20149;-82
2022/01/03 01:10:38;;;;;;;23.85;4.95;;;;;;;9.98;80.63;101130.81;5087444;28;20023;-82
2022/01/03 01:13:08;;;;;;;26.80;5.53;;;;;;;9.98;80.43;101133.44;5084098;28;20473;-82
2022/01/03 01:15:34;;;;;;;23.45;5.15;;;;;;;9.99;80.94;101131.66;5067666;28;20034;-82
2022/01/03 01:18:03;;;;;;;25.65;5.32;;;;;;;9.97;80.83;101134.38;5076917;28;20035;-82
2022/01/03 01:20:29;;;;;;;24.73;4.90;;;;;;;9.99;80.88;101139.53;5067471;28;20063;-82
2022/01/03 01:22:54;;;;;;;24.65;5.75;;;;;;;9.98;80.71;101136.06;5093327;28;20131;-82
2022/01/03 01:27:50;;;;;;;22.42;5.50;;;;;;;9.99;81.00;101137.75;5087435;28;20135;-82
2022/01/03 01:30:26;;;;;;;22.48;5.28;;;;;;;9.98;81.37;101149.19;5087688;28;20059;-82
2022/01/03 01:33:05;;;;;;;25.40;5.20;;;;;;;10.00;81.00;101149.09;5086174;28;20392;-82
2022/01/03 01:35:55;;;;;;;22.77;5.05;;;;;;;10.00;80.79;101160.47;5076672;28;20028;-82
2022/01/03 01:38:24;;;;;;;27.58;5.20;;;;;;;9.96;80.96;101168.66;5084285;28;20126;-82
2022/01/03 01:40:52;;;;;;;25.20;4.60;;;;;;;9.95;80.86;101165.19;5083441;28;20053;-81
2022/01/03 01:43:37;;;;;;;24.10;4.90;;;;;;;9.93;81.54;101172.31;5090633;28;20027;-81
2022/01/03 01:46:09;;;;;;;32.20;5.15;;;;;;;9.92;81.19;101175.91;5092126;28;20032;-81
2022/01/03 01:48:37;;;;;;;24.42;4.63;;;;;;;9.90;80.66;101169.91;5083511;28;20048;-81
2022/01/03 01:51:05;;;;;;;20.52;4.22;;;;;;;9.87;81.36;101167.47;5082725;28;20031;-81
2022/01/03 01:53:37;;;;;;;25.00;5.20;;;;;;;9.87;81.36;101169.25;5085993;28;20518;-81
2022/01/03 01:56:08;;;;;;;24.67;4.73;;;;;;;9.84;81.04;101174.72;5075819;28;20434;-81
2022/01/03 01:58:52;;;;;;;26.67;4.50;;;;;;;9.81;81.30;101164.41;5082639;28;20288;-82
2022/01/03 02:01:20;;;;;;;27.13;4.43;;;;;;;9.75;81.57;101165.66;5075023;28;20114;-81
2022/01/03 02:04:02;;;;;;;25.35;4.32;;;;;;;9.75;81.82;101176.19;5077723;28;20047;-81
2022/01/03 02:06:40;;;;;;;20.38;4.07;;;;;;;9.72;81.66;101169.34;5076880;28;20032;-81
2022/01/03 02:09:09;;;;;;;31.88;4.80;;;;;;;9.71;81.57;101177.31;5087210;28;20384;-81
2022/01/03 02:11:56;;;;;;;22.08;4.93;;;;;;;9.69;81.93;101179.22;5078898;28;20075;-81
2022/01/03 02:14:24;;;;;;;25.75;3.70;;;;;;;9.67;81.95;101178.47;5100675;28;20114;-81
2022/01/03 02:16:50;;;;;;;20.38;4.13;;;;;;;9.65;81.97;101169.84;5091373;28;20388;-81
2022/01/03 02:19:19;;;;;;;26.30;4.43;;;;;;;9.63;82.03;101172.56;5083353;28;20028;-81
2022/01/03 02:21:45;;;;;;;23.52;3.85;;;;;;;9.61;82.02;101173.63;5093408;28;20024;-81
2022/01/03 02:24:12;;;;;;;22.15;4.60;;;;;;;9.58;82.06;101179.03;5073654;28;20021;-81
2022/01/03 02:26:37;;;;;;;23.70;4.20;;;;;;;9.56;82.14;101175.66;5090592;28;20054;-81
2022/01/03 02:29:04;;;;;;;21.17;3.97;;;;;;;9.55;82.16;101173.97;5089895;28;20059;-81
2022/01/03 02:31:31;;;;;;;24.20;4.03;;;;;;;9.52;81.99;101174.19;5096615;28;20056;-82
2022/01/03 02:34:00;;;;;;;24.83;4.13;;;;;;;9.52;82.23;101174.19;5081998;28;20111;-81
2022/01/03 02:36:29;;;;;;;26.08;4.50;;;;;;;9.46;82.66;101180.66;5071788;28;20067;-81
2022/01/03 02:38:55;;;;;;;21.08;3.88;;;;;;;9.45;82.66;101178.16;5082758;28;20053;-81
2022/01/03 02:41:21;;;;;;;21.35;3.97;;;;;;;9.42;82.68;101180.03;5088503;28;20044;-81
2022/01/03 02:43:50;;;;;;;22.65;4.57;;;;;;;9.43;82.42;101186.13;5072942;28;20047;-81
2022/01/03 02:46:16;;;;;;;22.98;4.20;;;;;;;9.42;82.55;101180.03;5079162;28;20036;-81
2022/01/03 02:48:43;;;;;;;24.45;4.35;;;;;;;9.43;82.72;101186.13;5082892;28;20603;-82
2022/01/03 02:51:10;;;;;;;23.95;4.45;;;;;;;9.42;83.00;101177.41;5088718;28;20400;-81
2022/01/03 02:53:38;;;;;;;26.42;4.70;;;;;;;9.41;82.85;101180.97;5105380;28;20028;-81
2022/01/03 02:56:04;;;;;;;27.33;4.95;;;;;;;9.41;82.66;101178.34;5082936;28;20597;-81
2022/01/03 02:58:30;;;;;;;29.15;4.82;;;;;;;9.37;83.00;101179.47;5073466;28;20111;-81
2022/01/03 03:00:56;;;;;;;26.40;3.97;;;;;;;9.37;83.25;101171.59;5087549;28;20039;-81
2022/01/03 03:03:22;;;;;;;29.25;5.35;;;;;;;9.36;83.21;101184.84;5078253;28;20024;-81
2022/01/03 03:05:48;;;;;;;22.35;4.68;;;;;;;9.35;83.31;101181.38;5080798;28;20501;-81
2022/01/03 03:08:14;;;;;;;27.70;5.25;;;;;;;9.35;83.47;101183.16;5073445;28;20122;-81
2022/01/03 03:10:41;;;;;;;28.95;4.60;;;;;;;9.33;83.12;101180.63;5089909;28;20039;-82
2022/01/03 03:13:07;;;;;;;28.17;4.43;;;;;;;9.34;83.57;101187.56;5087915;28;20649;-81
2022/01/03 03:15:33;;;;;;;26.85;4.45;;;;;;;9.33;83.64;101167.50;5078706;28;20122;-81
2022/01/03 03:17:59;;;;;;;27.77;4.60;;;;;;;9.34;83.53;101181.47;5082710;28;20484;-81
2022/01/03 03:20:31;;;;;;;27.08;4.72;;;;;;;9.33;83.64;101179.78;5078634;28;20039;-81
2022/01/03 03:22:58;;;;;;;;;;;;;;;9.42;83.15;101189.69;5080071;28;20464;-81
2022/01/03 03:25:27;;;;;;;28.90;4.55;;;;;;;9.37;83.53;101182.09;5089044;28;19911;-81
2022/01/03 03:28:08;;;;;;;30.08;4.25;;;;;;;9.38;83.28;101183.78;5090055;28;20094;-81
2022/01/03 03:30:48;;;;;;;23.70;3.85;;;;;;;9.39;83.03;101185.47;5103059;28;20131;-82
2022/01/03 03:33:16;;;;;;;25.17;4.13;;;;;;;9.41;83.31;101178.34;5084765;28;20513;-81
2022/01/03 03:35:42;;;;;;;25.85;3.90;;;;;;;9.42;83.66;101185.28;5086823;28;20464;-81
2022/01/03 03:38:08;;;;;;;32.53;4.82;;;;;;;9.46;83.55;101192.97;5088765;28;20036;-81
2022/01/03 03:40:33;;;;;;;23.10;4.57;;;;;;;9.47;83.83;101189.41;5082098;28;20020;-81
2022/01/03 03:42:59;;;;;;;27.83;4.50;;;;;;;9.47;84.15;101177.09;5087888;28;20020;-81
2022/01/03 03:45:25;;;;;;;30.13;4.93;;;;;;;9.47;84.03;101190.22;5087218;28;20073;-81
2022/01/03 03:47:51;;;;;;;35.47;5.00;;;;;;;9.47;83.76;101178.88;5087280;28;20055;-81
2022/01/03 03:50:18;;;;;;;30.27;4.45;;;;;;;9.46;84.08;101180.66;5079654;28;20024;-81
2022/01/03 03:52:44;;;;;;;25.13;5.10;;;;;;;9.46;84.10;101177.19;5097651;28;20035;-81
2022/01/03 03:55:10;;;;;;;31.60;4.63;;;;;;;9.44;83.92;101187.81;5101700;28;20020;-81
2022/01/03 03:57:37;;;;;;;29.70;4.70;;;;;;;9.43;84.13;101176.47;5103665;28;20027;-81
2022/01/03 04:00:12;;;;;;;22.90;4.10;;;;;;;9.42;83.84;101163.44;5104450;28;20122;-82
2022/01/03 04:02:37;;;;;;;29.15;4.68;;;;;;;9.40;83.58;101175.81;5067082;28;20073;-82
2022/01/03 04:05:05;;;;;;;28.90;5.25;;;;;;;9.41;83.01;101169.63;5092735;28;20020;-81
2022/01/03 04:07:31;;;;;;;28.00;3.92;;;;;;;9.40;83.72;101176.66;5076076;28;20028;-81
2022/01/03 04:09:56;;;;;;;28.27;4.50;;;;;;;9.42;84.07;101152.91;5081716;28;20047;-82
2022/01/03 04:12:23;;;;;;;33.65;4.85;;;;;;;9.41;84.10;101167.00;5087891;28;20036;-81
2022/01/03 04:14:49;;;;;;;27.73;4.63;;;;;;;9.42;83.78;101160.81;5073403;28;20025;-81
2022/01/03 04:17:15;;;;;;;25.27;4.55;;;;;;;9.43;83.81;101160.69;5075377;28;20051;-81
2022/01/03 04:19:42;;;;;;;29.25;5.07;;;;;;;9.45;83.56;101162.38;5104110;28;20031;-81
2022/01/03 04:22:07;;;;;;;31.65;4.80;;;;;;;9.45;83.89;101157.13;5105330;28;20437;-81
2022/01/03 04:24:33;;;;;;;26.67;4.63;;;;;;;9.46;83.99;101156.19;5088383;28;20099;-81
2022/01/03 04:26:58;;;;;;;24.83;4.43;;;;;;;9.47;83.48;101156.09;5087298;28;20507;-82
2022/01/03 04:29:24;;;;;;;28.58;4.65;;;;;;;9.46;84.00;101153.56;5086158;28;20156;-81
2022/01/03 04:31:51;;;;;;;32.70;4.53;;;;;;;9.48;83.75;101141.16;5085071;28;20044;-81
2022/01/03 04:34:16;;;;;;;27.20;4.70;;;;;;;9.49;84.04;101143.69;5075616;28;20028;-81
2022/01/03 04:36:43;;;;;;;28.90;5.38;;;;;;;9.45;83.91;101144.84;5068751;28;20071;-81
2022/01/03 04:39:09;;;;;;;24.63;4.32;;;;;;;9.47;84.01;101144.75;5103047;28;20102;-81
2022/01/03 04:41:35;;;;;;;29.08;4.50;;;;;;;9.48;83.52;101149.91;5088705;28;20391;-82
2022/01/03 04:44:05;;;;;;;32.30;5.07;;;;;;;9.49;83.81;101148.13;5086899;28;20119;-81
2022/01/03 04:46:31;;;;;;;27.92;4.60;;;;;;;9.49;84.20;101151.56;5077780;28;20047;-81
2022/01/03 04:48:58;;;;;;;24.38;4.10;;;;;;;9.50;83.72;101145.38;5081461;28;20024;-81
2022/01/03 04:51:23;;;;;;;32.80;4.85;;;;;;;9.52;83.24;101145.28;5069889;28;21622;-81
2022/01/03 04:53:49;;;;;;;27.52;4.07;;;;;;;9.54;83.18;101146.88;5077125;28;20104;-81
2022/01/03 04:56:15;;;;;;;28.92;4.90;;;;;;;9.54;83.61;101144.25;5085485;28;20474;-81
2022/01/03 04:58:42;;;;;;;27.73;4.95;;;;;;;9.54;83.73;101144.25;5087118;28;20032;-81
2022/01/03 05:01:09;;;;;;;25.83;4.40;;;;;;;9.54;83.70;101127.63;5084694;28;20106;-81
2022/01/03 05:03:35;;;;;;;28.08;4.25;;;;;;;9.56;83.71;101138.88;5075818;28;20380;-81
2022/01/03 05:06:02;;;;;;;25.77;4.07;;;;;;;9.57;83.51;101145.81;5083321;28;20028;-81
2022/01/03 05:08:32;;;;;;;29.27;4.63;;;;;;;9.57;83.62;101138.78;5076501;28;20028;-81
2022/01/03 05:11:01;;;;;;;28.20;4.32;;;;;;;9.58;83.32;101142.25;5103021;28;20514;-81
2022/01/03 05:13:31;;;;;;;23.50;4.30;;;;;;;9.60;83.46;101135.97;5081493;28;20117;-82
2022/01/03 05:15:58;;;;;;;28.42;4.13;;;;;;;9.61;83.38;101137.69;5081289;28;20472;-81
2022/01/03 05:18:24;;;;;;;25.08;4.40;;;;;;;9.62;83.46;101128.00;5097316;28;20027;-82
2022/01/03 05:20:51;;;;;;;28.30;4.68;;;;;;;9.61;83.29;101126.31;5082132;28;20067;-82
2022/01/03 05:23:17;;;;;;;31.48;4.30;;;;;;;9.61;83.64;101126.31;5081208;28;20027;-82
2022/01/03 05:25:42;;;;;;;26.20;4.25;;;;;;;9.60;83.37;101121.97;5077363;28;20027;-82
2022/01/03 05:28:08;;;;;;;29.63;4.22;;;;;;;9.59;83.72;101134.28;5101842;28;20059;-82
2022/01/03 05:30:34;;;;;;;26.38;4.28;;;;;;;9.59;83.32;101126.41;5079326;28;20044;-82
2022/01/03 05:32:59;;;;;;;25.25;4.28;;;;;;;9.56;83.64;101121.34;5079688;28;20043;-80
2022/01/03 05:35:25;;;;;;;29.58;4.80;;;;;;;9.57;83.35;101119.56;5085606;28;20027;-80
2022/01/03 05:37:51;;;;;;;30.42;4.20;;;;;;;9.57;83.47;101104.63;5070965;28;20079;-83
2022/01/03 05:40:16;;;;;;;29.60;4.30;;;;;;;9.58;83.59;101116.00;5077830;28;20028;-83
2022/01/03 05:42:44;;;;;;;25.00;4.28;;;;;;;9.58;83.23;101114.19;5084151;28;20054;-83
2022/01/03 05:45:09;;;;;;;26.15;4.20;;;;;;;9.57;83.22;101114.31;5076397;28;20375;-83
2022/01/03 05:47:35;;;;;;;23.65;4.07;;;;;;;9.56;83.36;101112.63;5102569;28;20020;-83
2022/01/03 05:50:01;;;;;;;28.38;4.05;;;;;;;9.56;83.08;101107.38;5071457;28;20040;-83
2022/01/03 05:52:26;;;;;;;22.20;3.88;;;;;;;9.56;82.91;101108.22;5069137;28;20392;-83
2022/01/03 05:54:52;;;;;;;23.40;4.18;;;;;;;9.56;83.52;101102.13;5080302;28;20020;-83
2022/01/03 05:57:19;;;;;;;24.00;4.40;;;;;;;9.54;82.89;101104.00;5069333;28;20024;-83
2022/01/03 05:59:45;;;;;;;28.83;4.40;;;;;;;9.54;83.41;101094.34;5099614;28;20392;-83
2022/01/03 06:02:15;;;;;;;24.65;3.53;;;;;;;9.54;83.38;101096.97;5085129;28;20083;-83
2022/01/03 06:04:59;;;;;;;26.38;3.70;;;;;;;9.54;83.31;101101.38;5085987;28;20042;-83
2022/01/03 06:07:25;;;;;;;28.95;4.43;;;;;;;9.54;82.95;101096.13;5093933;28;20028;-83
2022/01/03 06:09:51;;;;;;;24.00;3.90;;;;;;;9.52;83.52;101103.25;5073584;28;20032;-83
2022/01/03 06:12:18;;;;;;;26.45;4.15;;;;;;;9.50;83.83;101102.53;5085113;28;20107;-83
2022/01/03 06:14:45;;;;;;;26.00;3.97;;;;;;;9.47;83.89;101095.69;5084901;28;20036;-83
2022/01/03 06:17:11;;;;;;;24.73;3.60;;;;;;;9.46;83.91;101093.16;5076326;28;20025;-83
2022/01/03 06:19:38;;;;;;;22.45;3.80;;;;;;;9.45;84.00;101088.84;5088083;28;20031;-83
2022/01/03 06:22:04;;;;;;;27.83;4.45;;;;;;;9.42;84.34;101098.63;5089464;28;20480;-82
2022/01/03 06:24:31;;;;;;;22.98;3.72;;;;;;;9.40;84.01;101092.63;5090564;28;20027;-83
2022/01/03 06:26:56;;;;;;;19.25;3.65;;;;;;;9.39;84.46;101098.81;5091331;28;20467;-83
2022/01/03 06:29:22;;;;;;;24.60;3.63;;;;;;;9.34;84.69;101090.41;5084688;28;20038;-83
2022/01/03 06:31:50;;;;;;;24.30;3.70;;;;;;;9.33;84.93;101091.34;5090711;28;20055;-83
2022/01/03 06:34:17;;;;;;;22.52;3.83;;;;;;;9.32;84.73;101099.31;5089677;28;20036;-80
2022/01/03 06:36:43;;;;;;;25.48;3.80;;;;;;;9.29;84.62;101092.47;5089941;28;20020;-81
2022/01/03 06:39:11;;;;;;;19.92;3.65;;;;;;;9.31;85.43;101103.72;5090759;28;20544;-81
2022/01/03 06:41:38;;;;;;;26.10;3.90;;;;;;;9.29;86.23;101100.34;5089156;28;20048;-81
2022/01/03 06:44:04;;;;;;;19.63;3.30;;;;;;;9.29;86.84;101097.72;5106042;28;21313;-81
2022/01/03 06:46:30;;;;;;;23.20;4.00;;;;;;;9.24;87.07;101091.94;5081777;28;20052;-81
2022/01/03 06:48:57;;;;;;;24.52;3.83;;;;;;;9.24;87.84;101091.94;5093532;28;20030;-81
2022/01/03 06:51:22;;;;;;;22.38;3.67;;;;;;;9.24;88.42;101091.09;5089004;28;20036;-82
2022/01/03 06:53:48;;;;;;;25.05;4.00;;;;;;;9.20;88.35;101085.16;5099942;28;20030;-81
2022/01/03 06:56:13;;;;;;;25.25;4.13;;;;;;;9.19;89.27;101087.91;5083010;28;20039;-82
2022/01/03 06:58:42;;;;;;;17.80;3.10;;;;;;;9.17;89.34;101090.63;5088801;28;20906;-81
2022/01/03 07:01:09;;;;;;;21.83;3.67;;;;;;;9.15;89.32;101087.25;5105661;28;20105;-82
2022/01/03 07:03:35;;;;;;;21.90;3.50;;;;;;;9.14;89.65;101096.06;5078005;28;20559;-81
2022/01/03 07:06:00;;;;;;;21.95;3.92;;;;;;;9.11;89.63;101093.66;5089357;28;20116;-80
2022/01/03 07:08:26;;;;;;;22.48;3.88;;;;;;;9.09;89.74;101087.66;5081687;28;20031;-80
2022/01/03 07:10:52;;;;;;;26.10;3.90;;;;;;;9.07;89.67;101084.28;5075729;28;20055;-81
2022/01/03 07:13:18;;;;;;;25.77;4.13;;;;;;;9.06;89.57;101078.19;5089664;28;20549;-80
2022/01/03 07:21:16;;;;;;;26.33;4.55;;;;;;;9.02;90.17;101078.50;5090012;28;20371;-82
2022/01/03 07:23:44;;;;;;;21.80;3.45;;;;;;;8.99;89.69;101076.91;5090494;28;20028;-82
2022/01/03 07:26:09;;;;;;;22.08;3.63;;;;;;;8.99;89.66;101082.16;5090435;28;20032;-82
2022/01/03 07:28:35;;;;;;;17.90;3.30;;;;;;;8.98;89.46;101090.13;5102864;28;20521;-82
2022/01/03 07:31:00;;;;;;;20.63;3.30;;;;;;;8.97;89.56;101083.19;5081868;28;20052;-83
2022/01/03 07:33:26;;;;;;;21.45;3.38;;;;;;;8.96;89.43;101081.50;5087173;28;20035;-82
2022/01/03 07:35:52;;;;;;;20.88;3.60;;;;;;;8.93;89.46;101093.03;5083200;28;20031;-83
2022/01/03 07:38:17;;;;;;;24.90;3.60;;;;;;;8.92;89.36;101090.53;5083839;28;20170;-83
2022/01/03 07:40:42;;;;;;;14.93;3.30;;;;;;;8.91;89.27;101078.34;5077980;28;20028;-82
2022/01/03 07:43:08;;;;;;;26.65;3.17;;;;;;;8.95;89.57;101087.69;5085175;28;20036;-83
2022/01/03 07:45:33;;;;;;;20.63;3.70;;;;;;;8.92;89.50;101083.50;5084395;28;20059;-82
2022/01/03 07:47:59;;;;;;;22.40;3.22;;;;;;;8.92;89.35;101090.53;5084152;28;20477;-82
2022/01/03 07:50:25;;;;;;;24.88;3.80;;;;;;;8.94;89.10;101096.50;5083552;28;20096;-82
2022/01/03 07:52:50;;;;;;;21.85;3.28;;;;;;;8.92;89.06;101101.00;5083660;28;20035;-82
2022/01/03 07:55:15;;;;;;;23.83;3.38;;;;;;;8.96;89.04;101097.25;5094580;28;20372;-82
2022/01/03 07:57:42;;;;;;;24.15;3.72;;;;;;;8.97;88.98;101105.03;5078503;28;20024;-83
2022/01/03 08:00:13;;;;;;;19.70;3.60;;;;;;;8.97;89.02;101109.44;5089040;28;20108;-83
2022/01/03 08:02:40;;;;;;;21.20;3.60;;;;;;;8.99;88.95;101102.31;5086234;28;20028;-82
2022/01/03 08:05:10;;;;;;;24.88;3.72;;;;;;;9.00;88.78;101090.88;5086611;28;20394;-80
2022/01/03 08:07:36;;;;;;;21.67;3.35;;;;;;;9.03;88.70;101082.78;5083765;28;20028;-80
2022/01/03 08:10:04;;;;;;;19.20;3.38;;;;;;;9.04;88.27;101087.09;5094000;28;21180;-80
2022/01/03 08:12:30;;;;;;;19.90;3.75;;;;;;;9.05;88.19;101096.66;5077583;28;20017;-80
2022/01/03 08:14:55;;;;;;;23.25;3.85;;;;;;;9.04;88.34;101102.84;5085277;28;20038;-82
2022/01/03 08:17:21;;;;;;;20.45;4.05;;;;;;;9.04;88.10;101102.84;5088385;28;20051;-82
2022/01/03 08:19:46;;;;;;;23.17;4.03;;;;;;;9.04;88.16;101098.44;5089922;28;20116;-82
2022/01/03 08:22:15;;;;;;;23.25;3.90;;;;;;;9.05;87.81;101096.66;5089182;28;20154;-83
2022/01/03 08:24:42;;;;;;;23.08;3.83;;;;;;;9.06;87.75;101090.47;5089806;28;20034;-83
2022/01/03 08:27:08;;;;;;;24.00;4.30;;;;;;;9.06;88.14;101093.94;5104824;28;20027;-82
2022/01/03 08:29:34;;;;;;;22.88;3.28;;;;;;;9.07;87.90;101090.38;5070062;28;20085;-82
2022/01/03 08:31:59;;;;;;;21.00;3.83;;;;;;;9.07;87.58;101100.03;5087840;28;20044;-82
2022/01/03 08:34:25;;;;;;;25.95;3.72;;;;;;;9.08;87.96;101085.97;5104566;28;20089;-80
2022/01/03 08:36:51;;;;;;;24.23;3.47;;;;;;;9.10;87.72;101087.56;5088504;28;20058;-77
2022/01/03 08:39:17;;;;;;;17.33;3.60;;;;;;;9.11;87.77;101091.88;5088130;28;20495;-76
2022/01/03 08:41:42;;;;;;;23.63;4.15;;;;;;;9.12;87.67;101092.69;5076872;28;20024;-77
2022/01/03 08:44:08;;;;;;;27.65;3.83;;;;;;;9.14;87.31;101082.94;5077261;28;20495;-76
2022/01/03 08:46:34;;;;;;;24.52;3.83;;;;;;;9.16;87.83;101085.47;5069378;28;20074;-76
2022/01/03 08:49:00;;;;;;;24.38;3.45;;;;;;;9.15;87.58;101087.25;5078919;28;20020;-77
2022/01/03 08:51:25;;;;;;;23.10;3.22;;;;;;;9.17;87.36;101100.28;5071939;28;20320;-77
2022/01/03 08:53:51;;;;;;;32.78;4.13;;;;;;;9.19;87.44;101101.03;5072911;28;20033;-76
2022/01/03 08:56:18;;;;;;;22.90;3.83;;;;;;;9.19;87.32;101104.50;5084150;28;20043;-83
2022/01/03 08:58:43;;;;;;;28.10;4.47;;;;;;;9.21;87.72;101107.91;5068829;28;20028;-80
2022/01/03 09:01:10;;;;;;;19.50;3.42;;;;;;;9.23;87.75;101110.41;5084889;28;20074;-84
2022/01/03 09:03:37;;;;;;;23.83;3.30;;;;;;;9.22;87.71;101120.06;5094167;28;20503;-83
2022/01/03 09:06:03;;;;;;;28.58;3.90;;;;;;;9.27;87.16;101111.91;5085100;28;20032;-82
2022/01/03 09:08:28;;;;;;;24.38;3.53;;;;;;;9.28;86.88;101109.19;5083219;28;20115;-82
2022/01/03 09:10:54;;;;;;;20.00;3.45;;;;;;;9.30;87.70;101102.03;5098083;28;20126;-82
2022/01/03 09:13:21;;;;;;;21.65;3.78;;;;;;;9.32;87.68;101107.19;5081059;28;20032;-82
2022/01/03 09:15:48;;;;;;;19.90;3.35;;;;;;;9.36;87.32;101104.28;5082846;28;20329;-83
2022/01/03 09:18:19;;;;;;;24.25;4.10;;;;;;;9.40;87.02;101103.13;5083734;28;20465;-82
2022/01/03 09:20:45;;;;;;;22.30;3.30;;;;;;;9.45;86.93;101099.34;5085324;28;20073;-82
2022/01/03 09:23:22;;;;;;;21.30;3.90;;;;;;;9.48;86.56;101101.78;5094240;28;20453;-80
2022/01/03 09:31:46;;;;;;;19.42;3.20;;;;;;;9.54;85.84;101098.75;5068353;28;20064;-82
2022/01/03 09:34:13;;;;;;;20.48;3.80;;;;;;;9.57;85.61;101082.78;5073667;28;20044;-82
2022/01/03 09:36:38;;;;;;;20.08;3.65;;;;;;;9.57;85.23;101061.75;5073972;28;20024;-82
2022/01/03 09:39:04;;;;;;;24.20;3.67;;;;;;;9.58;85.72;101071.34;5068438;28;20538;-82
2022/01/03 09:41:32;;;;;;;26.92;3.85;;;;;;;9.59;85.60;101076.47;5069223;28;20035;-81
2022/01/03 09:44:11;;;;;;;26.80;4.10;;;;;;;9.62;84.90;101070.22;5075097;28;20085;-82
2022/01/03 09:46:40;;;;;;;23.23;3.78;;;;;;;9.63;84.70;101082.41;5070507;28;20569;-82
2022/01/03 09:49:08;;;;;;;21.20;3.20;;;;;;;9.62;85.41;101075.47;5073142;28;20021;-81
2022/01/03 09:51:34;;;;;;;24.42;3.42;;;;;;;9.67;84.85;101076.84;5079186;28;20054;-82
2022/01/03 09:54:04;;;;;;;22.98;4.05;;;;;;;9.69;85.33;101082.84;5077472;28;20021;-82
2022/01/03 09:56:33;;;;;;;21.33;3.50;;;;;;;9.69;84.92;101077.59;5090233;28;20039;-81
2022/01/03 09:59:00;;;;;;;18.55;3.70;;;;;;;9.71;84.58;101077.47;5091454;28;20028;-82
2022/01/03 10:01:28;;;;;;;24.67;4.45;;;;;;;9.73;85.27;101070.34;5081080;28;20059;-82
2022/01/03 10:03:54;;;;;;;28.85;4.50;;;;;;;9.73;84.88;101067.69;5089811;28;20481;-82
2022/01/03 10:06:24;;;;;;;23.95;3.92;;;;;;;9.71;84.63;101069.59;5090068;28;20158;-82
2022/01/03 10:08:49;;;;;;;22.00;4.20;;;;;;;9.73;84.68;101073.81;5085598;28;20050;-82
2022/01/03 10:11:15;;;;;;;24.70;4.03;;;;;;;9.73;85.24;101072.97;5077488;28;20052;-81
2022/01/03 10:13:40;;;;;;;22.83;3.63;;;;;;;9.76;84.95;101071.91;5076721;28;20510;-81
2022/01/03 10:16:07;;;;;;;22.25;3.38;;;;;;;9.75;84.48;101060.56;5070893;28;20024;-81
2022/01/03 10:18:33;;;;;;;21.05;3.78;;;;;;;9.77;84.70;101068.34;5071403;28;20032;-82
2022/01/03 10:21:01;;;;;;;25.27;3.95;;;;;;;9.77;84.80;101071.81;5088651;28;20031;-81
2022/01/03 10:23:27;;;;;;;25.52;4.35;;;;;;;9.77;84.70;101073.59;5073224;28;20495;-82
2022/01/03 10:25:52;;;;;;;23.77;3.92;;;;;;;9.81;84.59;101070.66;5072980;28;20464;-82
2022/01/03 10:28:27;;;;;;;23.60;4.00;;;;;;;9.83;84.75;101067.91;5071585;28;20032;-82
2022/01/03 10:30:53;;;;;;;28.48;4.35;;;;;;;9.83;84.74;101063.50;5072284;28;20086;-82
2022/01/03 10:33:21;;;;;;;26.05;4.38;;;;;;;9.86;84.24;101065.94;5081468;28;20032;-82
2022/01/03 10:35:55;;;;;;;22.30;4.30;;;;;;;9.87;84.70;101054.47;5089635;28;20028;-81
2022/01/03 10:38:31;;;;;;;24.08;3.90;;;;;;;9.90;83.96;101059.50;5075021;28;20036;-82
2022/01/03 10:41:14;;;;;;;23.38;4.03;;;;;;;9.92;84.22;101052.38;5081804;28;20024;-82
2022/01/03 10:43:44;;;;;;;22.77;4.10;;;;;;;9.90;83.85;101043.75;5074778;28;20103;-82
2022/01/03 10:46:20;;;;;;;20.25;4.15;;;;;;;9.93;84.06;101043.53;5104023;28;20111;-82
2022/01/03 10:48:47;;;;;;;24.17;3.72;;;;;;;9.95;83.56;101036.38;5090145;28;20031;-82
2022/01/03 10:51:21;;;;;;;19.05;3.60;;;;;;;10.00;83.74;101044.78;5081667;28;20659;-82
2022/01/03 10:53:46;;;;;;;17.02;3.88;;;;;;;10.02;83.89;101027.16;5076304;28;20032;-83
2022/01/03 10:56:29;;;;;;;25.58;3.97;;;;;;;10.05;83.56;101016.44;5083954;28;20035;-80
2022/01/03 10:59:25;;;;;;;18.88;3.95;;;;;;;10.08;83.38;101020.63;5090276;28;20461;-83
2022/01/03 11:02:01;;;;;;;19.08;3.28;;;;;;;10.11;83.12;101007.28;5081300;28;20081;-82
2022/01/03 11:13:21;;;;;;;24.30;4.50;;;;;;;10.18;82.57;100991.91;5085881;28;20126;-83
2022/01/03 11:15:55;;;;;;;21.42;3.78;;;;;;;10.24;82.65;100994.13;5103098;28;20028;-83
2022/01/03 11:18:24;;;;;;;23.10;4.35;;;;;;;10.26;82.87;100987.81;5087462;28;20040;-83
2022/01/03 11:21:16;;;;;;;25.50;4.05;;;;;;;10.31;82.69;100984.84;5088523;28;20036;-83
2022/01/03 11:23:44;;;;;;;19.55;3.78;;;;;;;10.31;82.18;100983.06;5086083;28;20031;-83
2022/01/03 11:26:15;;;;;;;22.88;3.60;;;;;;;10.36;82.43;100982.75;5088681;28;20372;-83
2022/01/03 11:28:44;;;;;;;23.27;3.85;;;;;;;10.39;81.95;100986.94;5086462;28;20102;-82
2022/01/03 11:31:12;;;;;;;18.55;3.90;;;;;;;10.43;81.99;100984.00;5087797;28;20404;-83
2022/01/03 11:33:38;;;;;;;21.17;3.67;;;;;;;10.44;81.71;100990.13;5087503;28;20032;-83
2022/01/03 11:36:05;;;;;;;22.83;3.55;;;;;;;10.41;81.32;100972.75;5086598;28;20031;-83
2022/01/03 11:38:36;;;;;;;25.30;4.03;;;;;;;10.43;81.53;100972.66;5086729;28;20356;-83
2022/01/03 11:41:04;;;;;;;18.20;3.47;;;;;;;10.40;81.41;100976.31;5084635;28;20133;-83
2022/01/03 11:43:32;;;;;;;21.58;3.35;;;;;;;10.38;81.48;100965.06;5083772;28;20472;-83
2022/01/03 11:45:57;;;;;;;22.27;4.10;;;;;;;10.37;81.61;100973.91;5084433;28;20388;-83
2022/01/03 11:48:25;;;;;;;21.20;3.60;;;;;;;10.35;81.91;100960.03;5085763;28;20027;-83
2022/01/03 11:50:53;;;;;;;18.08;3.22;;;;;;;10.30;82.16;100952.47;5100247;28;20038;-83